地図

経路データ

SID SEASON NUMBER BASIN SUBBASIN NAME ISO_TIME NATURE LAT LON WMO_WIND WMO_PRES WMO_AGENCY TRACK_TYPE DIST2LAND LANDFALL IFLAG USA_AGENCY USA_ATCF_ID USA_LAT USA_LON USA_RECORD USA_STATUS USA_WIND USA_PRES USA_SSHS USA_R34_NE USA_R34_SE USA_R34_SW USA_R34_NW USA_R50_NE USA_R50_SE USA_R50_SW USA_R50_NW USA_R64_NE USA_R64_SE USA_R64_SW USA_R64_NW USA_POCI USA_ROCI USA_RMW USA_EYE TOKYO_LAT TOKYO_LON TOKYO_GRADE TOKYO_WIND TOKYO_PRES TOKYO_R50_DIR TOKYO_R50_LONG TOKYO_R50_SHORT TOKYO_R30_DIR TOKYO_R30_LONG TOKYO_R30_SHORT TOKYO_LAND CMA_LAT CMA_LON CMA_CAT CMA_WIND CMA_PRES HKO_LAT HKO_LON HKO_CAT HKO_WIND HKO_PRES NEWDELHI_LAT NEWDELHI_LON NEWDELHI_GRADE NEWDELHI_WIND NEWDELHI_PRES NEWDELHI_CI NEWDELHI_DP NEWDELHI_POCI REUNION_LAT REUNION_LON REUNION_TYPE REUNION_WIND REUNION_PRES REUNION_TNUM REUNION_CI REUNION_RMW REUNION_R34_NE REUNION_R34_SE REUNION_R34_SW REUNION_R34_NW REUNION_R50_NE REUNION_R50_SE REUNION_R50_SW REUNION_R50_NW REUNION_R64_NE REUNION_R64_SE REUNION_R64_SW REUNION_R64_NW BOM_LAT BOM_LON BOM_TYPE BOM_WIND BOM_PRES BOM_TNUM BOM_CI BOM_RMW BOM_R34_NE BOM_R34_SE BOM_R34_SW BOM_R34_NW BOM_R50_NE BOM_R50_SE BOM_R50_SW BOM_R50_NW BOM_R64_NE BOM_R64_SE BOM_R64_SW BOM_R64_NW BOM_ROCI BOM_POCI BOM_EYE BOM_POS_METHOD BOM_PRES_METHOD NADI_LAT NADI_LON NADI_CAT NADI_WIND NADI_PRES WELLINGTON_LAT WELLINGTON_LON WELLINGTON_WIND WELLINGTON_PRES DS824_LAT DS824_LON DS824_STAGE DS824_WIND DS824_PRES TD9636_LAT TD9636_LON TD9636_STAGE TD9636_WIND TD9636_PRES TD9635_LAT TD9635_LON TD9635_WIND TD9635_PRES TD9635_ROCI NEUMANN_LAT NEUMANN_LON NEUMANN_CLASS NEUMANN_WIND NEUMANN_PRES MLC_LAT MLC_LON MLC_CLASS MLC_WIND MLC_PRES USA_GUST BOM_GUST BOM_GUST_PER REUNION_GUST REUNION_GUST_PER USA_SEAHGT USA_SEARAD_NE USA_SEARAD_SE USA_SEARAD_SW USA_SEARAD_NW STORM_SPEED STORM_DIR
2007297N18300 2007 75 NA NA NOEL 2007-10-24 00:00:00 DS 18.0000 -60.2000 20 1010 hurdat_atl main 571 550 O_____________ hurdat_atl AL162007 18.0000 -60.2000 LO 20 1010 -3 5 269
2007297N18300 2007 75 NA NA NOEL 2007-10-24 03:00:00 DS 17.9951 -60.4500 main 550 518 P_____________ AL162007 17.9951 -60.4500 LO 22 1009 -3 5 270
2007297N18300 2007 75 NA NA NOEL 2007-10-24 06:00:00 DS 18.0000 -60.7000 25 1009 hurdat_atl main 518 497 O_____________ hurdat_atl AL162007 18.0000 -60.7000 LO 25 1009 -3 5 274
2007297N18300 2007 75 NA NA NOEL 2007-10-24 09:00:00 DS 18.0275 -60.9501 main 486 465 P_____________ AL162007 18.0275 -60.9501 LO 25 1009 -3 5 282
2007297N18300 2007 75 NA NA NOEL 2007-10-24 12:00:00 DS 18.1000 -61.2000 25 1009 hurdat_atl main 465 443 O_____________ hurdat_atl AL162007 18.1000 -61.2000 LO 25 1009 -3 5 293
2007297N18300 2007 75 NA NA NOEL 2007-10-24 15:00:00 DS 18.2274 -61.4425 main 443 411 P_____________ AL162007 18.2274 -61.4425 LO 25 1009 -3 6 302
2007297N18300 2007 75 NA NA NOEL 2007-10-24 18:00:00 DS 18.4000 -61.7000 25 1009 hurdat_atl main 411 380 O_____________ hurdat_atl AL162007 18.4000 -61.7000 LO 25 1009 -3 6 305
2007297N18300 2007 75 NA NA NOEL 2007-10-24 21:00:00 DS 18.6000 -61.9925 main 380 350 P_____________ AL162007 18.6000 -61.9925 LO 25 1009 -3 7 305
2007297N18300 2007 75 NA NA NOEL 2007-10-25 00:00:00 DS 18.8000 -62.3000 25 1009 hurdat_atl main 350 321 O_____________ hurdat_atl AL162007 18.8000 -62.3000 LO 25 1009 -3 7 303
2007297N18300 2007 75 NA NA NOEL 2007-10-25 03:00:00 DS 18.9725 -62.6000 main 323 294 P_____________ AL162007 18.9725 -62.6000 LO 25 1008 -3 6 298
2007297N18300 2007 75 NA NA NOEL 2007-10-25 06:00:00 DS 19.1000 -62.9000 25 1007 hurdat_atl main 294 268 O_____________ hurdat_atl AL162007 19.1000 -62.9000 LO 25 1007 -3 6 290
2007297N18300 2007 75 NA NA NOEL 2007-10-25 09:00:00 DS 19.1800 -63.2000 main 268 238 P_____________ AL162007 19.1800 -63.2000 LO 25 1007 -3 6 280
2007297N18300 2007 75 NA NA NOEL 2007-10-25 12:00:00 DS 19.2000 -63.5000 25 1007 hurdat_atl main 238 209 O_____________ hurdat_atl AL162007 19.2000 -63.5000 LO 25 1007 -3 6 270
2007297N18300 2007 75 NA NA NOEL 2007-10-25 15:00:00 DS 19.1799 -63.7925 main 209 176 P_____________ AL162007 19.1799 -63.7925 LO 25 1006 -3 6 260
2007297N18300 2007 75 NA NA NOEL 2007-10-25 18:00:00 DS 19.1000 -64.1000 25 1006 hurdat_atl main 176 143 O_____________ hurdat_atl AL162007 19.1000 -64.1000 LO 25 1006 -3 6 254
2007297N18300 2007 75 NA NA NOEL 2007-10-25 21:00:00 DS 19.0024 -64.4272 main 143 95 P_____________ AL162007 19.0024 -64.4272 LO 25 1005 -3 7 246
2007297N18300 2007 75 NA CS NOEL 2007-10-26 00:00:00 DS 18.8000 -64.8000 25 1005 hurdat_atl main 95 43 O_____________ hurdat_atl AL162007 18.8000 -64.8000 LO 25 1005 -3 9 233
2007297N18300 2007 75 NA CS NOEL 2007-10-26 03:00:00 DS 18.4374 -65.2276 main 42 10 P_____________ AL162007 18.4374 -65.2276 LO 25 1005 -3 12 227
2007297N18300 2007 75 NA CS NOEL 2007-10-26 06:00:00 DS 18.0000 -65.7000 25 1005 hurdat_atl main 10 0 O_____________ hurdat_atl AL162007 18.0000 -65.7000 LO 25 1005 -3 13 227
2007297N18300 2007 75 NA CS NOEL 2007-10-26 09:00:00 DS 17.5924 -66.1924 main 33 33 P_____________ AL162007 17.5924 -66.1924 LO 25 1004 -3 12 230
2007297N18300 2007 75 NA CS NOEL 2007-10-26 12:00:00 DS 17.2000 -66.7000 25 1004 hurdat_atl main 81 79 O_____________ hurdat_atl AL162007 17.2000 -66.7000 LO 25 1004 -3 12 232
2007297N18300 2007 75 NA CS NOEL 2007-10-26 15:00:00 DS 16.8200 -67.2150 main 123 123 P_____________ AL162007 16.8200 -67.2150 LO 25 1004 -3 12 234
2007297N18300 2007 75 NA CS NOEL 2007-10-26 18:00:00 DS 16.5000 -67.7000 25 1004 hurdat_atl main 165 165 O_____________ hurdat_atl AL162007 16.5000 -67.7000 LO 25 1004 -3 10 238
2007297N18300 2007 75 NA CS NOEL 2007-10-26 21:00:00 DS 16.2773 -68.1147 main 203 203 P_____________ AL162007 16.2773 -68.1147 LO 25 1004 -3 9 242
2007297N18300 2007 75 NA CS NOEL 2007-10-27 00:00:00 DS 16.1000 -68.5000 25 1004 hurdat_atl main 235 235 O_____________ hurdat_atl AL162007 16.1000 -68.5000 LO 25 1004 -3 8 243
2007297N18300 2007 75 NA CS NOEL 2007-10-27 03:00:00 DS 15.8999 -68.8999 main 257 257 P_____________ AL162007 15.8999 -68.8999 LO 25 1004 -3 9 243
2007297N18300 2007 75 NA CS NOEL 2007-10-27 06:00:00 DS 15.7000 -69.3000 25 1004 hurdat_atl main 284 284 O_____________ hurdat_atl AL162007 15.7000 -69.3000 LO 25 1004 -3 9 240
2007297N18300 2007 75 NA CS NOEL 2007-10-27 09:00:00 DS 15.4624 -69.6926 main 296 292 P_____________ AL162007 15.4624 -69.6926 LO 25 1004 -3 9 243
2007297N18300 2007 75 NA CS NOEL 2007-10-27 12:00:00 DS 15.3000 -70.1000 25 1004 hurdat_atl main 292 271 O_____________ hurdat_atl AL162007 15.3000 -70.1000 LO 25 1004 -3 9 259
2007297N18300 2007 75 NA CS NOEL 2007-10-27 15:00:00 DS 15.2977 -70.5948 main 271 249 P_____________ AL162007 15.2977 -70.5948 LO 25 1004 -3 9 277
2007297N18300 2007 75 NA CS NOEL 2007-10-27 18:00:00 DS 15.4000 -71.0000 25 1004 hurdat_atl main 249 237 O_____________ hurdat_atl AL162007 15.4000 -71.0000 LO 25 1004 -3 6 294
2007297N18300 2007 75 NA CS NOEL 2007-10-27 21:00:00 DS 15.5348 -71.1525 main 235 213 P_____________ AL162007 15.5348 -71.1525 LO 27 1003 -3 4 327
2007297N18300 2007 75 NA CS NOEL 2007-10-28 00:00:00 TS 15.7000 -71.2000 30 1003 hurdat_atl main 213 201 O_____________ hurdat_atl AL162007 15.7000 -71.2000 TD 30 1003 -1 1008 200 75 40 3 336
2007297N18300 2007 75 NA CS NOEL 2007-10-28 03:00:00 TS 15.8500 -71.3000 main 190 179 P_____________ AL162007 15.8500 -71.3000 TD 30 1002 -1 1008 200 100 4 327
2007297N18300 2007 75 NA CS NOEL 2007-10-28 06:00:00 TS 16.0000 -71.4000 30 1002 hurdat_atl main 179 167 O_____________ hurdat_atl AL162007 16.0000 -71.4000 TD 30 1002 -1 1008 200 125 40 4 327
2007297N18300 2007 75 NA CS NOEL 2007-10-28 09:00:00 TS 16.1500 -71.5000 main 157 147 P_____________ AL162007 16.1500 -71.5000 TD 35 1000 0 50 37 1008 200 112 4 327
2007297N18300 2007 75 NA CS NOEL 2007-10-28 12:00:00 TS 16.3000 -71.6000 40 999 hurdat_atl main 147 135 O_____________ hurdat_atl AL162007 16.3000 -71.6000 TS 40 999 0 100 75 1008 200 100 45 3 327
2007297N18300 2007 75 NA CS NOEL 2007-10-28 15:00:00 TS 16.4350 -71.6926 main 138 119 P_____________ AL162007 16.4350 -71.6926 TS 45 997 0 100 75 1008 187 62 4 327
2007297N18300 2007 75 NA CS NOEL 2007-10-28 18:00:00 TS 16.6000 -71.8000 50 996 hurdat_atl main 119 104 O_____________ hurdat_atl AL162007 16.6000 -71.8000 TS 50 996 0 100 60 75 40 40 1008 175 25 55 4 327
2007297N18300 2007 75 NA CS NOEL 2007-10-28 21:00:00 TS 16.8050 -71.9426 main 104 92 P_____________ AL162007 16.8050 -71.9426 TS 50 997 0 110 75 75 40 40 1007 175 25 6 330
2007297N18300 2007 75 NA CS NOEL 2007-10-29 00:00:00 TS 17.1000 -72.1000 50 999 hurdat_atl main 93 71 O_____________ hurdat_atl AL162007 17.1000 -72.1000 TS 50 999 0 120 90 75 40 40 1007 175 25 60 8 341
2007297N18300 2007 75 NA CS NOEL 2007-10-29 03:00:00 TS 17.5664 -72.2096 main 64 22 P_____________ AL162007 17.5664 -72.2096 TS 47 1000 0 135 120 75 1007 175 27 10 342
2007297N18300 2007 75 NA CS NOEL 2007-10-29 06:00:00 TS 18.0000 -72.4000 45 1002 hurdat_atl main 22 11 O_____________ hurdat_atl AL162007 18.0000 -72.4000 TS 45 1002 0 150 150 75 1007 175 30 55 9 333
2007297N18300 2007 75 NA CS NOEL 2007-10-29 07:00:00 TS 18.1000 -72.5000 45 1002 hurdat_atl main 11 0 V_____________ hurdat_atl AL162007 18.1000 -72.5000 L TS 45 1002 0 154 150 77 1007 172 35 11 332
2007297N18300 2007 75 NA CS NOEL 2007-10-29 09:00:00 TS 18.4668 -72.6661 main 10 0 P_____________ AL162007 18.4668 -72.6661 TS 43 1002 0 162 150 82 1007 167 45 14 341
2007297N18300 2007 75 NA CS NOEL 2007-10-29 12:00:00 TS 19.2000 -72.9000 40 1002 hurdat_atl main 10 0 O_____________ hurdat_atl AL162007 19.2000 -72.9000 TS 40 1002 0 175 150 90 1007 160 60 50 14 338
2007297N18300 2007 75 NA NA NOEL 2007-10-29 15:00:00 TS 19.7408 -73.2102 main 0 0 P_____________ AL162007 19.7408 -73.2102 TS 42 1001 0 175 150 95 1007 160 67 12 327
2007297N18300 2007 75 NA NA NOEL 2007-10-29 18:00:00 TS 20.2000 -73.6000 45 1001 hurdat_atl main 49 38 O_____________ hurdat_atl AL162007 20.2000 -73.6000 TS 45 1001 0 175 150 100 1007 160 75 50 12 319
2007297N18300 2007 75 NA NA NOEL 2007-10-29 21:00:00 TS 20.6674 -74.0622 main 53 39 P_____________ AL162007 20.6674 -74.0622 TS 45 1000 0 175 150 100 1007 155 67 12 311
2007297N18300 2007 75 NA NA NOEL 2007-10-30 00:00:00 TS 21.0000 -74.6000 45 999 hurdat_atl main 45 42 O_____________ hurdat_atl AL162007 21.0000 -74.6000 TS 45 999 0 175 150 100 1007 150 60 55 12 294
2007297N18300 2007 75 NA NA NOEL 2007-10-30 03:00:00 TS 21.1326 -75.2002 main 42 11 P_____________ AL162007 21.1326 -75.2002 TS 47 998 0 175 150 100 1007 150 42 11 275
2007297N18300 2007 75 NA NA NOEL 2007-10-30 06:00:00 TS 21.1000 -75.8000 50 997 hurdat_atl main 11 0 O_____________ hurdat_atl AL162007 21.1000 -75.8000 L TS 50 997 0 175 150 100 30 30 1007 150 25 60 11 261
2007297N18300 2007 75 NA NA NOEL 2007-10-30 09:00:00 TS 20.9574 -76.3454 main 0 0 P_____________ AL162007 20.9574 -76.3454 TS 45 998 0 175 150 1008 160 30 10 252
2007297N18300 2007 75 NA NA NOEL 2007-10-30 12:00:00 TS 20.8000 -76.8000 40 999 hurdat_atl main 0 0 O_____________ hurdat_atl AL162007 20.8000 -76.8000 TS 40 999 0 175 150 1009 170 35 55 8 254
2007297N18300 2007 75 NA NA NOEL 2007-10-30 15:00:00 TS 20.7473 -77.1449 main 0 0 P_____________ AL162007 20.7473 -77.1449 TS 37 999 0 162 1009 172 62 6 270
2007297N18300 2007 75 NA NA NOEL 2007-10-30 18:00:00 TS 20.8000 -77.4000 35 1000 hurdat_atl main 0 0 O_____________ hurdat_atl AL162007 20.8000 -77.4000 TS 35 1000 0 150 1010 175 90 45 5 295
2007297N18300 2007 75 NA NA NOEL 2007-10-30 21:00:00 TS 20.9549 -77.6225 main 0 0 P_____________ AL162007 20.9549 -77.6225 TS 35 1000 0 150 1009 177 90 5 317
2007297N18300 2007 75 NA NA NOEL 2007-10-31 00:00:00 TS 21.2000 -77.8000 35 1000 hurdat_atl main 0 0 O_____________ hurdat_atl AL162007 21.2000 -77.8000 TS 35 1000 0 150 1008 180 90 45 6 329
2007297N18300 2007 75 NA NA NOEL 2007-10-31 03:00:00 TS 21.4775 -77.9650 main 0 0 P_____________ AL162007 21.4775 -77.9650 TS 35 1000 0 150 1008 180 90 7 335
2007297N18300 2007 75 NA NA NOEL 2007-10-31 06:00:00 TS 21.8000 -78.1000 35 1000 hurdat_atl main 0 0 O_____________ hurdat_atl AL162007 21.8000 -78.1000 TS 35 1000 0 150 1008 180 90 45 7 344
2007297N18300 2007 75 NA NA NOEL 2007-10-31 09:00:00 TS 22.1874 -78.1851 main 15 15 P_____________ AL162007 22.1874 -78.1851 TS 40 997 0 125 1008 180 52 7 345
2007297N18300 2007 75 NA NA NOEL 2007-10-31 12:00:00 TS 22.5000 -78.3000 45 995 hurdat_atl main 24 22 O_____________ hurdat_atl AL162007 22.5000 -78.3000 TS 45 995 0 100 100 60 1008 180 15 50 5 317
2007297N18300 2007 75 NA NA NOEL 2007-10-31 15:00:00 TS 22.5802 -78.5801 main 33 33 P_____________ AL162007 22.5802 -78.5801 TS 45 995 0 100 100 80 1008 180 45 5 282
2007297N18300 2007 75 NA NA NOEL 2007-10-31 18:00:00 TS 22.6000 -78.8000 45 995 hurdat_atl main 33 33 O_____________ hurdat_atl AL162007 22.6000 -78.8000 TS 45 995 0 100 100 100 1008 180 75 55 2 310
2007297N18300 2007 75 NA NA NOEL 2007-10-31 21:00:00 TS 22.7199 -78.7600 main 44 44 P_____________ AL162007 22.7199 -78.7600 TS 47 995 0 112 100 107 1008 180 62 4 31
2007297N18300 2007 75 NA NA NOEL 2007-11-01 00:00:00 TS 22.9000 -78.6000 50 995 hurdat_atl main 67 67 O_____________ hurdat_atl AL162007 22.9000 -78.6000 TS 50 995 0 125 100 115 50 50 1008 180 50 60 5 34
2007297N18300 2007 75 NA NA NOEL 2007-11-01 03:00:00 TS 23.1350 -78.4575 main 89 89 P_____________ AL162007 23.1350 -78.4575 TS 50 994 0 125 100 115 50 50 1008 180 50 6 29
2007297N18300 2007 75 NA NA NOEL 2007-11-01 06:00:00 TS 23.4000 -78.3000 50 993 hurdat_atl main 94 70 O_____________ hurdat_atl AL162007 23.4000 -78.3000 TS 50 993 0 125 100 115 50 50 1008 180 50 60 5 30
2007297N18300 2007 75 NA NA NOEL 2007-11-01 09:00:00 TS 23.5902 -78.1731 main 70 33 P_____________ AL162007 23.5902 -78.1731 TS 50 993 0 137 100 107 50 50 1008 200 50 6 29
2007297N18300 2007 75 NA NA NOEL 2007-11-01 12:00:00 TS 23.9000 -78.0000 50 993 hurdat_atl main 33 15 O_____________ hurdat_atl AL162007 23.9000 -78.0000 TS 50 993 0 150 100 100 50 50 1008 220 50 60 8 26
2007297N18300 2007 75 NA NA NOEL 2007-11-01 13:15:00 TS 24.1000 -77.9000 50 993 hurdat_atl main 15 0 V_____________ hurdat_atl AL162007 24.1000 -77.9000 L TS 50 993 0 155 105 100 55 52 1008 231 52 9 17
2007297N18300 2007 75 NA NA NOEL 2007-11-01 15:00:00 TS 24.3357 -77.8560 main 0 0 P_____________ AL162007 24.3357 -77.8560 TS 51 992 0 162 112 100 62 55 1009 247 55 14 27
2007297N18300 2007 75 NA NA NOEL 2007-11-01 17:45:00 TS 25.0000 -77.4000 55 992 hurdat_atl main 51 51 V_____________ hurdat_atl AL162007 25.0000 -77.4000 L TS 55 992 0 173 123 100 73 59 1009 272 59 18 33
2007297N18300 2007 75 NA NA NOEL 2007-11-01 18:00:00 TS 25.1000 -77.3000 55 992 hurdat_atl main 64 64 O_____________ hurdat_atl AL162007 25.1000 -77.3000 TS 55 992 0 175 125 30 100 75 60 1010 275 60 65 21 36
2007297N18300 2007 75 NA NA NOEL 2007-11-01 21:00:00 TS 25.9176 -76.6574 main 158 158 P_____________ AL162007 25.9176 -76.6574 TS 62 986 0 187 150 45 100 75 60 1010 275 50 15 29
2007297N18300 2007 75 NA NA NOEL 2007-11-02 00:00:00 TS 26.4000 -76.5000 70 981 hurdat_atl main 208 208 O_____________ hurdat_atl AL162007 26.4000 -76.5000 HU 70 981 1 200 175 60 100 75 60 40 1010 275 40 80 13 24
2007297N18300 2007 75 NA NA NOEL 2007-11-02 03:00:00 TS 27.0722 -76.0796 main 292 292 P_____________ AL162007 27.0722 -76.0796 HU 70 981 1 225 212 67 110 82 75 40 1010 325 32 15 32
2007297N18300 2007 75 NA NA NOEL 2007-11-02 06:00:00 TS 27.7000 -75.6000 70 981 hurdat_atl main 375 375 O_____________ hurdat_atl AL162007 27.7000 -75.6000 HU 70 981 1 250 250 75 120 90 90 35 40 40 25 25 1010 375 25 85 15 40
2007297N18300 2007 75 NA NA NOEL 2007-11-02 09:00:00 TS 28.1776 -75.0138 main 456 456 P_____________ AL162007 28.1776 -75.0138 HU 70 981 1 250 260 75 135 95 95 42 70 50 27 42 1010 375 35 15 47
2007297N18300 2007 75 NA NA NOEL 2007-11-02 12:00:00 TS 28.7000 -74.4000 70 981 hurdat_atl main 537 537 O_____________ hurdat_atl AL162007 28.7000 -74.4000 HU 70 981 1 250 270 75 150 100 100 50 100 60 30 30 60 1010 375 45 85 16 40
2007297N18300 2007 75 NA NA NOEL 2007-11-02 15:00:00 TS 29.4249 -73.8271 main 634 579 P_____________ AL162007 29.4249 -73.8271 HU 70 980 1 275 270 82 150 100 100 55 100 30 30 60 1010 387 37 19 31
2007297N18300 2007 75 NA NA NOEL 2007-11-02 18:00:00 TS 30.3000 -73.3000 70 980 hurdat_atl main 574 514 O_____________ hurdat_atl AL162007 30.3000 -73.3000 HU 70 980 1 300 270 90 150 100 100 60 100 30 30 60 1010 400 30 85 20 25
2007297N18300 2007 75 NA NA NOEL 2007-11-02 21:00:00 TS 31.2698 -72.8196 main 512 469 P_____________ AL162007 31.2698 -72.8196 HU 70 980 1 330 285 165 240 100 112 80 100 52 52 60 21 21
2007297N18300 2007 75 NA NA NOEL 2007-11-03 00:00:00 ET 32.3000 -72.4000 70 980 hurdat_atl main 462 424 O_____________ hurdat_atl AL162007 32.3000 -72.4000 EX 70 980 -4 360 300 240 330 100 125 100 100 75 75 60 21 18
2007297N18300 2007 75 NA NA NOEL 2007-11-03 03:00:00 ET 33.2922 -72.0408 main 424 386 P_____________ AL162007 33.2922 -72.0408 EX 70 980 -4 405 330 240 330 120 150 120 125 87 75 21 16
2007297N18300 2007 75 NA NA NOEL 2007-11-03 06:00:00 ET 34.3000 -71.7000 70 980 hurdat_atl main 383 372 O_____________ hurdat_atl AL162007 34.3000 -71.7000 EX 70 980 -4 450 360 240 330 140 175 140 150 100 90 21 16
2007297N18300 2007 75 NA NA NOEL 2007-11-03 09:00:00 ET 35.3196 -71.3351 main 383 380 P_____________ AL162007 35.3196 -71.3351 EX 72 977 -4 495 375 240 330 160 192 160 175 100 105 22 17
2007297N18300 2007 75 NA NA NOEL 2007-11-03 12:00:00 ET 36.4000 -70.9000 75 974 hurdat_atl main 417 404 O_____________ hurdat_atl AL162007 36.4000 -70.9000 EX 75 974 -4 540 390 240 330 180 210 180 200 100 120 24 19
2007297N18300 2007 75 NA NA NOEL 2007-11-03 15:00:00 ET 37.5848 -70.3514 main 398 320 P_____________ AL162007 37.5848 -70.3514 EX 75 972 -4 540 390 240 315 180 210 180 200 95 120 26 22
2007297N18300 2007 75 NA NA NOEL 2007-11-03 18:00:00 ET 38.8000 -69.7000 75 970 hurdat_atl main 312 217 O_____________ hurdat_atl AL162007 38.8000 -69.7000 EX 75 970 -4 540 390 240 300 180 210 180 200 90 120 26 24
2007297N18300 2007 75 NA NA NOEL 2007-11-03 21:00:00 ET 39.9417 -69.0057 main 217 161 P_____________ AL162007 39.9417 -69.0057 EX 72 969 -4 540 390 240 300 180 210 180 200 75 120 26 27
2007297N18300 2007 75 NA NA NOEL 2007-11-04 00:00:00 ET 41.1000 -68.2000 70 968 hurdat_atl main 163 163 O_____________ hurdat_atl AL162007 41.1000 -68.2000 EX 70 968 -4 540 390 240 300 180 210 180 200 60 120 27 30
2007297N18300 2007 75 NA NA NOEL 2007-11-04 03:00:00 ET 42.2306 -67.2239 main 189 27 P_____________ AL162007 42.2306 -67.2239 EX 67 966 -4 560 390 240 212 190 217 135 137 60 75 29 31
2007297N18300 2007 75 NA NA NOEL 2007-11-04 06:00:00 ET 43.6000 -66.2000 65 965 hurdat_atl main 13 0 O_____________ hurdat_atl AL162007 43.6000 -66.2000 EX 65 965 -4 580 390 240 125 200 225 90 75 60 30 35 24
2007297N18300 2007 75 NA NA NOEL 2007-11-04 09:00:00 ET 45.4591 -65.2545 main 0 0 P_____________ AL162007 45.4591 -65.2545 EX 62 965 -4 515 395 245 125 220 232 41 19
2007297N18300 2007 75 NA NA NOEL 2007-11-04 12:00:00 ET 47.5000 -64.3000 60 966 hurdat_atl main 37 7 O_____________ hurdat_atl AL162007 47.5000 -64.3000 EX 60 966 -4 450 400 250 125 240 240 41 19
2007297N18300 2007 75 NA NA NOEL 2007-11-04 15:00:00 ET 49.3709 -63.2917 main 0 0 P_____________ AL162007 49.3709 -63.2917 EX 60 966 -4 450 400 250 125 240 240 39 20
2007297N18300 2007 75 NA NA NOEL 2007-11-04 18:00:00 ET 51.2000 -62.2000 60 966 hurdat_atl main 0 0 O_____________ hurdat_atl AL162007 51.2000 -62.2000 EX 60 966 -4 450 400 250 125 240 240 40 22
2007297N18300 2007 75 NA NA NOEL 2007-11-04 21:00:00 ET 53.0458 -60.8946 main 0 0 P_____________ AL162007 53.0458 -60.8946 EX 60 966 -4 450 437 250 125 255 255 39 23
2007297N18300 2007 75 NA NA NOEL 2007-11-05 00:00:00 ET 54.8000 -59.6000 60 967 hurdat_atl main 0 0 O_____________ hurdat_atl AL162007 54.8000 -59.6000 EX 60 967 -4 450 475 250 125 270 270 36 22
2007297N18300 2007 75 NA NA NOEL 2007-11-05 03:00:00 ET 56.4296 -58.5554 main 135 135 P_____________ AL162007 56.4296 -58.5554 EX 57 967 -4 450 475 250 150 270 270 33 20
2007297N18300 2007 75 NA NA NOEL 2007-11-05 06:00:00 ET 57.9000 -57.6000 55 967 hurdat_atl main 241 241 O_____________ hurdat_atl AL162007 57.9000 -57.6000 EX 55 967 -4 450 475 250 175 270 270 30 21
2007297N18300 2007 75 NA NA NOEL 2007-11-05 09:00:00 ET 59.2393 -56.5024 main 348 348 P_____________ AL162007 59.2393 -56.5024 EX 55 967 -4 435 475 250 175 270 270 27 24
2007297N18300 2007 75 NA NA NOEL 2007-11-05 12:00:00 ET 60.4000 -55.4000 55 968 hurdat_atl main 348 251 O_____________ hurdat_atl AL162007 60.4000 -55.4000 EX 55 968 -4 420 475 250 175 270 270 24 26
2007297N18300 2007 75 NA NA NOEL 2007-11-05 15:00:00 ET 61.3924 -54.3854 main 245 157 P_____________ AL162007 61.3924 -54.3854 EX 55 971 -4 420 475 250 150 270 270 21 28
2007297N18300 2007 75 NA NA NOEL 2007-11-05 18:00:00 ET 62.3000 -53.3000 55 974 hurdat_atl main 146 44 O_____________ hurdat_atl AL162007 62.3000 -53.3000 EX 55 974 -4 420 475 250 125 270 270 22 31
2007297N18300 2007 75 NA NA NOEL 2007-11-05 21:00:00 ET 63.2395 -51.9602 main 44 0 P_____________ AL162007 63.2395 -51.9602 EX 50 978 -4 315 507 275 135 135 23 34
2007297N18300 2007 75 NA NA NOEL 2007-11-06 00:00:00 ET 64.2000 -50.4000 45 983 hurdat_atl main 0 O_____________ hurdat_atl AL162007 64.2000 -50.4000 EX 45 983 -4 210 540 300 23 35

IBTrACS Databaseについて

本データベースは、米国NOAAが公開する1842年以降の世界の熱帯低気圧のベストトラックデータアーカイブInternational Best Track Archive for Climate Stewardship (IBTrACS)を、ウェブで閲覧しやすい形式に変換したものです。

最終更新日:2021-10-21